createdAt,value
2019-03-30T00:00:54.869Z,58.73
2019-03-30T00:03:28.106Z,62.40
2019-03-30T00:06:01.626Z,67.40
2019-03-30T00:08:34.910Z,70.00
2019-03-30T00:11:09.164Z,63.55
2019-03-30T00:13:43.543Z,68.33
2019-03-30T00:16:17.054Z,74.25
2019-03-30T00:18:51.277Z,56.85
2019-03-30T00:21:24.948Z,56.08
2019-03-30T00:23:59.503Z,56.18
2019-03-30T00:26:32.958Z,63.10
2019-03-30T00:29:06.373Z,67.90
2019-03-30T00:31:39.893Z,71.90
2019-03-30T00:34:13.230Z,67.50
2019-03-30T00:36:47.164Z,65.60
2019-03-30T00:39:20.558Z,69.85
2019-03-30T00:41:54.553Z,65.50
2019-03-30T00:44:27.783Z,77.60
2019-03-30T00:47:01.926Z,75.32
2019-03-30T00:49:48.517Z,71.28
2019-03-30T00:52:10.804Z,65.30
2019-03-30T00:54:44.183Z,58.48
2019-03-30T00:57:17.818Z,71.02
2019-03-30T00:59:51.165Z,66.07
2019-03-30T01:02:24.797Z,58.10
2019-03-30T01:04:59.486Z,62.75
2019-03-30T01:07:34.134Z,58.00
2019-03-30T01:10:08.554Z,63.68
2019-03-30T01:12:42.150Z,60.17
2019-03-30T01:15:15.858Z,58.00
2019-03-30T01:17:49.278Z,67.37
2019-03-30T01:20:22.583Z,64.58
2019-03-30T01:22:56.635Z,54.30
2019-03-30T01:25:29.950Z,71.75
2019-03-30T01:28:04.178Z,62.10
2019-03-30T01:30:37.715Z,50.95
2019-03-30T01:33:11.553Z,55.75
2019-03-30T01:35:44.833Z,61.40
2019-03-30T01:38:18.485Z,57.80
2019-03-30T01:40:51.896Z,62.67
2019-03-30T01:43:25.309Z,59.42
2019-03-30T01:45:58.638Z,56.33
2019-03-30T01:48:32.109Z,57.50
2019-03-30T01:51:05.456Z,58.68
2019-03-30T01:53:39.514Z,48.08
2019-03-30T01:56:12.815Z,53.10
2019-03-30T01:58:46.584Z,55.83
2019-03-30T02:01:19.851Z,56.28
2019-03-30T02:03:55.107Z,49.45
2019-03-30T02:06:28.572Z,67.32
2019-03-30T02:09:06.125Z,59.30
2019-03-30T02:11:39.422Z,61.48
2019-03-30T02:14:13.246Z,56.55
2019-03-30T02:16:46.570Z,52.75
2019-03-30T02:19:21.831Z,62.25
2019-03-30T02:21:55.192Z,52.15
2019-03-30T02:24:28.532Z,56.92
2019-03-30T02:27:02.094Z,54.25
2019-03-30T02:29:35.454Z,52.62
2019-03-30T02:32:10.582Z,52.25
2019-03-30T02:34:47.741Z,51.08
2019-03-30T02:37:22.675Z,49.75
2019-03-30T02:39:56.370Z,57.27
2019-03-30T02:42:30.026Z,57.70
2019-03-30T02:45:03.523Z,61.60
2019-03-30T02:47:37.260Z,63.28
2019-03-30T02:50:11.044Z,57.95
2019-03-30T02:52:44.403Z,54.85
2019-03-30T02:55:18.205Z,56.53
2019-03-30T02:57:51.523Z,56.40
2019-03-30T03:00:27.101Z,66.47
2019-03-30T03:03:00.653Z,61.88
2019-03-30T03:05:38.074Z,67.92
2019-03-30T03:08:14.301Z,66.28
2019-03-30T03:10:53.079Z,71.60
2019-03-30T03:13:37.842Z,66.57
2019-03-30T03:16:12.965Z,53.25
2019-03-30T03:18:50.987Z,72.17
2019-03-30T03:21:26.258Z,60.88
2019-03-30T03:24:06.771Z,62.17
2019-03-30T03:26:41.051Z,55.35
2019-03-30T03:29:14.918Z,66.10
2019-03-30T03:32:10.542Z,53.65
2019-03-30T03:34:43.960Z,30.23
2019-03-30T03:37:19.070Z,31.70
2019-03-30T03:40:04.474Z,49.45
2019-03-30T03:42:38.743Z,25.95
2019-03-30T03:45:16.137Z,39.88
2019-03-30T03:47:52.886Z,13.10
2019-03-30T03:50:40.571Z,72.87
2019-03-30T03:53:16.086Z,67.60
2019-03-30T03:55:51.251Z,54.63
2019-03-30T03:58:27.079Z,64.32
2019-03-30T04:01:03.181Z,30.50
2019-03-30T04:03:40.551Z,42.08
2019-03-30T04:06:12.572Z,50.83
2019-03-30T04:08:50.262Z,43.52
2019-03-30T04:11:26.480Z,29.63
2019-03-30T04:14:01.450Z,51.90
2019-03-30T04:16:35.185Z,18.17
2019-03-30T04:19:18.544Z,51.65
2019-03-30T04:21:52.350Z,49.08
2019-03-30T04:24:26.895Z,56.35
2019-03-30T04:27:01.351Z,31.45
2019-03-30T04:29:35.347Z,38.28
2019-03-30T04:32:09.173Z,46.15
2019-03-30T04:34:42.470Z,32.80
2019-03-30T04:37:16.398Z,26.75
2019-03-30T04:39:50.944Z,51.00
2019-03-30T04:42:25.049Z,51.33
2019-03-30T04:44:58.399Z,27.93
2019-03-30T04:47:32.027Z,38.17
2019-03-30T04:50:05.948Z,28.00
2019-03-30T04:52:40.475Z,20.57
2019-03-30T04:55:13.753Z,30.65
2019-03-30T04:57:49.558Z,34.30
2019-03-30T05:00:23.741Z,19.35
2019-03-30T05:02:57.407Z,43.33
2019-03-30T05:05:31.257Z,48.15
2019-03-30T05:08:05.092Z,38.80
2019-03-30T05:10:38.694Z,24.52
2019-03-30T05:13:12.424Z,26.73
2019-03-30T05:15:47.218Z,33.18
2019-03-30T05:18:20.808Z,32.33
2019-03-30T05:20:56.981Z,50.05
2019-03-30T05:23:31.798Z,43.15
2019-03-30T05:26:05.492Z,53.42
2019-03-30T05:28:39.569Z,50.12
2019-03-30T05:31:13.382Z,39.23
2019-03-30T05:33:48.023Z,28.95
2019-03-30T05:36:21.507Z,37.30
2019-03-30T05:38:55.283Z,55.10
2019-03-30T05:41:29.060Z,46.88
2019-03-30T05:44:03.886Z,51.42
2019-03-30T05:46:37.990Z,49.83
2019-03-30T05:49:11.672Z,31.75
2019-03-30T05:51:47.519Z,45.40
2019-03-30T05:54:22.619Z,30.77
2019-03-30T05:56:58.300Z,52.40
2019-03-30T05:59:31.748Z,45.67
2019-03-30T06:02:07.955Z,44.10
2019-03-30T06:04:39.725Z,42.23
2019-03-30T06:07:13.771Z,46.25
2019-03-30T06:09:49.196Z,50.58
2019-03-30T06:12:27.338Z,48.05
2019-03-30T06:15:01.186Z,42.48
2019-03-30T06:17:34.837Z,52.55
2019-03-30T06:20:09.339Z,43.50
2019-03-30T06:22:45.707Z,51.70
2019-03-30T06:25:17.719Z,25.48
2019-03-30T06:27:51.798Z,29.30
2019-03-30T06:30:26.328Z,26.85
2019-03-30T06:33:03.128Z,38.70
2019-03-30T06:35:36.396Z,37.53
2019-03-30T06:38:09.954Z,18.10
2019-03-30T06:40:43.387Z,32.23
2019-03-30T06:43:17.050Z,48.92
2019-03-30T06:45:51.859Z,46.63
2019-03-30T06:48:25.237Z,47.23
2019-03-30T06:51:01.326Z,44.90
2019-03-30T06:53:35.468Z,45.63
2019-03-30T06:56:08.838Z,43.33
2019-03-30T06:58:42.331Z,40.78
2019-03-30T07:01:20.066Z,46.60
2019-03-30T07:03:53.419Z,45.90
2019-03-30T07:06:28.098Z,39.10
2019-03-30T07:09:06.340Z,39.98
2019-03-30T07:11:44.751Z,35.38
2019-03-30T07:14:19.908Z,46.90
2019-03-30T07:16:55.550Z,41.15
2019-03-30T07:19:32.483Z,35.48
2019-03-30T07:22:05.192Z,30.52
2019-03-30T07:24:39.128Z,42.15
2019-03-30T07:27:13.562Z,33.18
2019-03-30T07:29:47.776Z,31.37
2019-03-30T07:32:23.555Z,40.38
2019-03-30T07:34:57.717Z,41.50
2019-03-30T07:37:32.073Z,41.90
2019-03-30T07:40:09.859Z,26.52
2019-03-30T07:42:43.643Z,41.73
2019-03-30T07:45:18.858Z,50.80
2019-03-30T07:47:52.705Z,42.50
2019-03-30T07:50:26.510Z,44.13
2019-03-30T07:53:00.275Z,30.08
2019-03-30T07:55:34.044Z,47.08
2019-03-30T07:58:07.902Z,61.70
2019-03-30T08:00:43.143Z,45.38
2019-03-30T08:03:16.699Z,46.58
2019-03-30T08:05:50.347Z,43.85
2019-03-30T08:08:24.197Z,49.45
2019-03-30T08:10:57.913Z,42.95
2019-03-30T08:13:31.604Z,48.87
2019-03-30T08:16:05.101Z,41.92
2019-03-30T08:18:38.631Z,46.53
2019-03-30T08:21:11.975Z,30.05
2019-03-30T08:23:46.100Z,48.23
2019-03-30T08:26:19.300Z,49.15
2019-03-30T08:28:52.973Z,46.68
2019-03-30T08:31:26.348Z,46.18
2019-03-30T08:33:59.812Z,44.23
2019-03-30T08:36:33.395Z,35.03
2019-03-30T08:39:08.407Z,45.67
2019-03-30T08:41:42.040Z,53.85
2019-03-30T08:44:15.839Z,52.20
2019-03-30T08:46:49.689Z,42.85
2019-03-30T08:49:23.554Z,61.92
2019-03-30T08:51:56.785Z,47.53
2019-03-30T08:54:30.823Z,55.12
2019-03-30T08:57:04.058Z,57.33
2019-03-30T08:59:38.757Z,53.00
2019-03-30T09:02:12.113Z,52.17
2019-03-30T09:04:46.155Z,53.95
2019-03-30T09:07:19.466Z,48.87
2019-03-30T09:09:53.097Z,54.48
2019-03-30T09:12:26.387Z,65.92
2019-03-30T09:15:00.169Z,62.13
2019-03-30T09:17:37.050Z,65.70
2019-03-30T09:20:09.796Z,59.88
2019-03-30T09:22:43.134Z,59.45
2019-03-30T09:25:16.683Z,74.58
2019-03-30T09:27:50.127Z,67.50
2019-03-30T09:30:23.733Z,74.75
2019-03-30T09:32:57.042Z,64.67
2019-03-30T09:35:30.434Z,63.23
2019-03-30T09:38:06.361Z,63.40
2019-03-30T09:40:40.429Z,64.32
2019-03-30T09:43:14.432Z,59.33
2019-03-30T09:45:49.240Z,66.67
2019-03-30T09:48:22.828Z,64.10
2019-03-30T09:50:58.165Z,64.97
2019-03-30T09:53:31.995Z,65.42
2019-03-30T09:56:05.373Z,63.95
2019-03-30T09:58:38.826Z,61.20
2019-03-30T10:01:12.013Z,65.67
2019-03-30T10:03:45.457Z,64.75
2019-03-30T10:06:19.047Z,54.85
2019-03-30T10:08:52.375Z,60.10
2019-03-30T10:11:25.618Z,55.88
2019-03-30T10:13:59.695Z,58.58
2019-03-30T10:16:33.002Z,60.45
2019-03-30T10:19:07.963Z,61.98
2019-03-30T10:21:41.340Z,64.05
2019-03-30T10:24:17.377Z,66.35
2019-03-30T10:26:50.638Z,72.80
2019-03-30T10:29:27.111Z,60.10
2019-03-30T10:32:01.075Z,59.98
2019-03-30T10:34:34.678Z,75.45
2019-03-30T10:37:09.983Z,69.30
2019-03-30T10:39:43.542Z,77.12
2019-03-30T10:42:18.957Z,65.15
2019-03-30T10:44:55.119Z,69.55
2019-03-30T10:47:29.099Z,76.67
2019-03-30T10:50:17.416Z,80.20
2019-03-30T10:52:50.857Z,70.57
2019-03-30T10:55:24.454Z,73.05
2019-03-30T10:58:03.534Z,76.37
2019-03-30T11:00:40.548Z,67.55
2019-03-30T11:03:15.324Z,77.30
2019-03-30T11:05:49.338Z,63.38
2019-03-30T11:08:22.833Z,73.67
2019-03-30T11:10:59.838Z,76.22
2019-03-30T11:13:35.238Z,56.28
2019-03-30T11:16:12.768Z,75.78
2019-03-30T11:18:46.122Z,64.50
2019-03-30T11:21:21.392Z,81.02
2019-03-30T11:23:54.098Z,77.20
2019-03-30T11:26:27.521Z,81.82
2019-03-30T11:29:00.783Z,86.32
2019-03-30T11:31:38.148Z,72.47
2019-03-30T11:34:12.910Z,87.17
2019-03-30T11:36:46.364Z,101.87
2019-03-30T11:39:21.890Z,94.50
2019-03-30T11:41:55.364Z,85.57
2019-03-30T11:44:29.128Z,47.60
2019-03-30T11:47:03.067Z,84.75
2019-03-30T11:49:36.504Z,70.55
2019-03-30T11:52:11.226Z,76.62
2019-03-30T11:54:47.137Z,79.92
2019-03-30T11:57:22.871Z,71.92
2019-03-30T12:00:00.379Z,72.85
2019-03-30T12:02:31.818Z,72.67
2019-03-30T12:05:06.485Z,76.55
2019-03-30T12:07:46.767Z,80.03
2019-03-30T12:10:19.518Z,80.35
2019-03-30T12:12:53.190Z,86.85
2019-03-30T12:15:30.774Z,83.30
2019-03-30T12:18:05.619Z,72.15
2019-03-30T12:20:39.607Z,72.22
2019-03-30T12:23:17.098Z,73.60
2019-03-30T12:25:53.629Z,82.20
2019-03-30T12:28:30.731Z,84.45
2019-03-30T12:31:06.818Z,87.17
2019-03-30T12:33:40.665Z,78.42
2019-03-30T12:36:14.298Z,80.80
2019-03-30T12:38:49.877Z,79.82
2019-03-30T12:41:24.275Z,87.78
2019-03-30T12:43:59.390Z,69.05
2019-03-30T12:46:35.187Z,82.75
2019-03-30T12:49:10.325Z,50.95
2019-03-30T12:51:47.414Z,72.03
2019-03-30T12:54:25.917Z,80.67
2019-03-30T12:56:59.308Z,81.87
2019-03-30T12:59:32.843Z,64.95
2019-03-30T13:02:17.669Z,86.65
2019-03-30T13:04:50.963Z,84.62
2019-03-30T13:07:24.382Z,80.22
2019-03-30T13:09:57.971Z,86.67
2019-03-30T13:12:31.286Z,91.70
2019-03-30T13:15:04.511Z,89.07
2019-03-30T13:17:37.826Z,81.60
2019-03-30T13:20:11.851Z,81.20
2019-03-30T13:22:45.374Z,94.15
2019-03-30T13:25:19.039Z,83.78
2019-03-30T13:27:53.704Z,93.62
2019-03-30T13:30:28.728Z,90.60
2019-03-30T13:33:02.633Z,87.45
2019-03-30T13:35:37.057Z,90.17
2019-03-30T13:38:10.770Z,93.42
2019-03-30T13:40:45.331Z,87.95
2019-03-30T13:43:20.424Z,76.57
2019-03-30T13:45:54.127Z,90.47
2019-03-30T13:48:28.149Z,98.12
2019-03-30T13:51:01.788Z,94.97
2019-03-30T13:53:36.935Z,97.55
2019-03-30T13:56:17.435Z,94.80
2019-03-30T13:58:49.985Z,98.82
2019-03-30T14:01:36.149Z,97.25
2019-03-30T14:04:10.970Z,88.60
2019-03-30T14:06:45.268Z,95.20
2019-03-30T14:09:23.791Z,95.35
2019-03-30T14:11:58.674Z,96.37
2019-03-30T14:14:34.375Z,96.10
2019-03-30T14:17:11.755Z,106.78
2019-03-30T14:19:47.695Z,103.80
2019-03-30T14:22:21.172Z,112.83
2019-03-30T14:25:03.743Z,110.70
2019-03-30T14:27:37.790Z,55.10
2019-03-30T14:30:12.903Z,113.00
2019-03-30T14:32:46.348Z,110.05
2019-03-30T14:35:23.022Z,94.85
2019-03-30T14:37:55.931Z,89.17
2019-03-30T14:40:29.881Z,105.50
2019-03-30T14:43:08.683Z,112.95
2019-03-30T14:45:42.503Z,108.07
2019-03-30T14:48:16.055Z,115.62
2019-03-30T14:50:55.319Z,102.60
2019-03-30T14:53:29.338Z,110.60
2019-03-30T14:56:05.587Z,90.60
2019-03-30T14:58:46.824Z,88.62
2019-03-30T15:03:59.194Z,87.82
2019-03-30T15:06:38.310Z,94.42
2019-03-30T15:09:11.230Z,99.65
2019-03-30T15:11:46.133Z,77.42
2019-03-30T15:14:19.522Z,91.25
2019-03-30T15:16:58.294Z,91.53
2019-03-30T15:19:32.782Z,90.42
2019-03-30T15:22:06.226Z,90.77
2019-03-30T15:24:40.136Z,86.10
2019-03-30T15:27:15.217Z,84.03
2019-03-30T15:29:47.919Z,89.75
2019-03-30T15:32:21.632Z,88.65
2019-03-30T15:34:58.136Z,83.78
2019-03-30T15:37:31.300Z,94.70
2019-03-30T15:40:04.767Z,86.02
2019-03-30T15:42:42.780Z,93.65
2019-03-30T15:45:16.833Z,95.00
2019-03-30T15:47:50.310Z,93.10
2019-03-30T15:50:23.821Z,100.53
2019-03-30T15:52:57.436Z,105.87
2019-03-30T15:55:31.869Z,97.53
2019-03-30T15:58:06.188Z,94.52
2019-03-30T16:00:39.547Z,93.80
2019-03-30T16:03:16.647Z,97.33
2019-03-30T16:05:50.045Z,102.07
2019-03-30T16:08:33.335Z,104.12
2019-03-30T16:11:06.714Z,103.72
2019-03-30T16:13:42.463Z,63.73
2019-03-30T16:16:15.787Z,97.88
2019-03-30T16:18:51.559Z,93.22
2019-03-30T16:21:24.877Z,101.27
2019-03-30T16:23:58.915Z,93.42
2019-03-30T16:26:41.993Z,97.88
2019-03-30T16:29:09.481Z,102.47
2019-03-30T16:31:43.521Z,95.95
2019-03-30T16:34:18.941Z,104.25
2019-03-30T16:36:57.004Z,105.40
2019-03-30T16:39:34.660Z,127.35
2019-03-30T16:42:07.726Z,107.95
2019-03-30T16:44:41.249Z,148.43
2019-03-30T16:47:17.082Z,119.37
2019-03-30T16:49:52.644Z,107.55
2019-03-30T16:52:26.556Z,96.40
2019-03-30T16:54:59.999Z,109.25
2019-03-30T16:57:43.037Z,101.62
2019-03-30T17:00:12.767Z,77.50
2019-03-30T17:02:46.943Z,102.72
2019-03-30T17:05:24.170Z,99.03
2019-03-30T17:08:00.384Z,101.07
2019-03-30T17:10:33.445Z,101.40
2019-03-30T17:13:07.379Z,104.20
2019-03-30T17:15:41.812Z,103.72
2019-03-30T17:18:15.455Z,104.80
2019-03-30T17:20:49.485Z,103.10
2019-03-30T17:23:23.594Z,105.37
2019-03-30T17:25:57.085Z,103.97
2019-03-30T17:28:31.861Z,94.95
2019-03-30T17:31:05.581Z,108.65
2019-03-30T17:33:39.435Z,101.60
2019-03-30T17:36:13.582Z,112.83
2019-03-30T17:38:46.929Z,111.47
2019-03-30T17:41:21.360Z,98.78
2019-03-30T17:43:54.645Z,103.83
2019-03-30T17:46:28.454Z,112.77
2019-03-30T17:49:01.853Z,112.40
2019-03-30T17:51:35.313Z,99.22
2019-03-30T17:54:09.190Z,107.12
2019-03-30T17:56:43.037Z,102.05
2019-03-30T17:59:17.415Z,103.80
2019-03-30T18:01:52.093Z,103.00
2019-03-30T18:04:25.540Z,103.02
2019-03-30T18:06:59.142Z,101.72
2019-03-30T18:09:33.062Z,96.25
2019-03-30T18:12:06.987Z,96.28
2019-03-30T18:14:40.236Z,85.67
2019-03-30T18:17:14.271Z,95.40
2019-03-30T18:19:47.648Z,101.70
2019-03-30T18:22:22.522Z,94.17
2019-03-30T18:24:55.883Z,98.25
2019-03-30T18:27:29.513Z,79.87
2019-03-30T18:30:03.145Z,93.07
2019-03-30T18:32:37.588Z,98.25
2019-03-30T18:35:11.390Z,94.28
2019-03-30T18:37:45.411Z,94.42
2019-03-30T18:40:30.039Z,96.67
2019-03-30T18:43:04.888Z,87.08
2019-03-30T18:45:38.579Z,66.00
2019-03-30T18:48:16.449Z,103.12
2019-03-30T18:50:50.475Z,101.87
2019-03-30T18:53:23.761Z,100.75
2019-03-30T18:55:57.659Z,102.10
2019-03-30T18:58:41.468Z,103.30
2019-03-30T19:01:06.531Z,101.38
2019-03-30T19:03:39.998Z,99.35
2019-03-30T19:06:13.595Z,107.20
2019-03-30T19:08:46.918Z,111.60
2019-03-30T19:11:20.863Z,102.47
2019-03-30T19:13:54.079Z,106.58
2019-03-30T19:16:27.704Z,105.35
2019-03-30T19:19:01.145Z,117.90
2019-03-30T19:21:34.862Z,110.80
2019-03-30T19:24:08.330Z,99.13
2019-03-30T19:26:41.692Z,95.03
2019-03-30T19:29:15.198Z,99.87
2019-03-30T19:31:48.454Z,100.38
2019-03-30T19:34:22.046Z,94.22
2019-03-30T19:36:55.615Z,107.05
2019-03-30T19:39:29.212Z,98.12
2019-03-30T19:42:02.814Z,97.47
2019-03-30T19:44:36.200Z,98.07
2019-03-30T19:47:09.504Z,98.07
2019-03-30T19:49:43.296Z,100.70
2019-03-30T19:52:16.796Z,102.20
2019-03-30T19:54:50.384Z,107.27
2019-03-30T19:57:27.251Z,107.83
2019-03-30T19:59:58.565Z,102.90
2019-03-30T20:02:31.786Z,104.97
2019-03-30T20:05:05.194Z,123.82
2019-03-30T20:07:38.829Z,110.78
2019-03-30T20:10:12.578Z,105.20
2019-03-30T20:12:46.013Z,109.57
2019-03-30T20:15:19.791Z,104.50
2019-03-30T20:17:53.051Z,105.85
2019-03-30T20:20:26.811Z,110.72
2019-03-30T20:23:00.013Z,111.57
2019-03-30T20:25:33.497Z,105.63
2019-03-30T20:28:07.121Z,113.52
2019-03-30T20:30:40.415Z,123.22
2019-03-30T20:33:13.723Z,116.80
2019-03-30T20:35:47.521Z,105.17
2019-03-30T20:38:20.860Z,117.65
2019-03-30T20:40:54.554Z,115.85
2019-03-30T20:43:27.889Z,118.45
2019-03-30T20:46:01.575Z,122.10
2019-03-30T20:48:35.072Z,120.97
2019-03-30T20:51:09.746Z,121.47
2019-03-30T20:53:44.549Z,119.15
2019-03-30T20:56:18.258Z,116.75
2019-03-30T20:58:52.300Z,124.50
2019-03-30T21:01:25.777Z,128.80
2019-03-30T21:03:59.048Z,139.60
2019-03-30T21:06:32.794Z,128.70
2019-03-30T21:09:07.924Z,119.85
2019-03-30T21:11:41.528Z,122.10
2019-03-30T21:14:14.794Z,127.27
2019-03-30T21:16:48.485Z,118.50
2019-03-30T21:19:21.811Z,116.97
2019-03-30T21:21:55.757Z,122.70
2019-03-30T21:24:29.077Z,105.87
2019-03-30T21:27:02.451Z,118.45
2019-03-30T21:29:35.813Z,116.10
2019-03-30T21:32:09.387Z,117.15
2019-03-30T21:34:43.018Z,111.52
2019-03-30T21:37:16.693Z,116.90
2019-03-30T21:39:49.964Z,116.50
2019-03-30T21:42:23.205Z,111.65
2019-03-30T21:44:56.579Z,109.05
2019-03-30T21:47:30.315Z,111.30
2019-03-30T21:50:04.515Z,117.95
2019-03-30T21:52:38.480Z,109.70
2019-03-30T21:55:12.217Z,116.05
2019-03-30T21:57:45.331Z,119.15
2019-03-30T22:00:35.681Z,129.60
2019-03-30T22:03:09.123Z,114.50
2019-03-30T22:05:42.978Z,125.25
2019-03-30T22:08:17.333Z,117.47
2019-03-30T22:10:50.756Z,129.57
2019-03-30T22:13:24.260Z,130.55
2019-03-30T22:15:57.873Z,130.03
2019-03-30T22:18:31.381Z,133.18
2019-03-30T22:21:04.605Z,122.78
2019-03-30T22:23:37.864Z,128.97
2019-03-30T22:26:11.153Z,128.97
2019-03-30T22:28:44.494Z,126.25
2019-03-30T22:31:17.746Z,124.22
2019-03-30T22:33:51.062Z,122.28
2019-03-30T22:36:24.364Z,116.80
2019-03-30T22:38:57.915Z,120.82
2019-03-30T22:41:31.331Z,113.60
2019-03-30T22:44:05.574Z,124.95
2019-03-30T22:46:38.787Z,120.25
2019-03-30T22:49:12.465Z,127.35
2019-03-30T22:51:45.947Z,129.95
2019-03-30T22:54:19.518Z,116.73
2019-03-30T22:56:52.897Z,119.77
2019-03-30T22:59:27.514Z,119.60
2019-03-30T23:02:01.169Z,116.93
2019-03-30T23:04:34.509Z,126.85
2019-03-30T23:07:10.582Z,124.55
2019-03-30T23:09:43.893Z,126.30
2019-03-30T23:12:17.480Z,124.02
2019-03-30T23:14:52.628Z,127.20
2019-03-30T23:17:26.554Z,120.97
2019-03-30T23:19:59.906Z,127.50
2019-03-30T23:22:33.364Z,116.10
2019-03-30T23:25:07.718Z,120.57
2019-03-30T23:27:42.410Z,127.87
2019-03-30T23:30:16.382Z,112.57
2019-03-30T23:32:49.799Z,119.20
2019-03-30T23:35:23.110Z,122.60
2019-03-30T23:37:57.539Z,119.72
2019-03-30T23:40:31.498Z,114.25
2019-03-30T23:43:05.231Z,130.57
2019-03-30T23:45:38.850Z,115.03
2019-03-30T23:48:12.241Z,123.07
2019-03-30T23:50:46.286Z,125.25
2019-03-30T23:53:21.070Z,119.42
2019-03-30T23:55:55.560Z,127.80
2019-03-30T23:58:29.365Z,126.15
